Flight Track Log - Related Links

Times and Time Zones

All times are in EST time to prevent confusion due to time zone crossing. See the FIN368 flight status page for this flight to view local times or setup timezone preferences in your user account.

Time Position Orientation Groundspeed Altitude Reporting Facility
EST Latitude Longitude Course Direction KTS MPH feet Rate Location/Type
Fri 11:33:47 AM 64.2638 25.2901 182° South  Level Estimated
Fri 11:35:00 AM 64.1237 25.2769 182° South  Level Estimated
Fri 11:36:00 AM 64.0085 25.2661 182° South  Level Estimated
Fri 11:37:00 AM 63.8932 25.2555 182° South  Level Estimated
Fri 11:38:00 AM 63.7780 25.2449 182° South  Level Estimated
Fri 11:39:00 AM 63.6628 25.2345 182° South  Level Estimated
Fri 11:40:00 AM 63.5476 25.2241 182° South  Level Estimated
Fri 11:41:00 AM 63.4324 25.2138 182° South  Level Estimated
Fri 11:42:00 AM 63.3172 25.2036 182° South  Level Estimated
Fri 11:43:00 AM 63.2020 25.1934 182° South  Level Estimated
Fri 11:44:00 AM 63.0868 25.1834 182° South  Level Estimated
Fri 11:45:00 AM 62.9716 25.1734 182° South  Level Estimated
Fri 11:46:00 AM 62.8564 25.1635 182° South  Level Estimated
Fri 11:47:00 AM 62.7411 25.1537 182° South  Level Estimated
Fri 11:48:00 AM 62.6259 25.1439 182° South  Level Estimated
Fri 11:49:00 AM 62.5107 25.1342 182° South  Level Estimated
Fri 11:50:00 AM 62.3955 25.1246 182° South  Level Estimated
Fri 11:51:00 AM 62.2803 25.1151 182° South  Level Estimated
Fri 11:52:00 AM 62.1651 25.1057 182° South  Level Estimated
Fri 11:53:00 AM 62.0499 25.0963 182° South  Level Estimated
Fri 11:54:00 AM 61.9346 25.0870 182° South  Level Estimated
Fri 11:55:00 AM 61.8194 25.0777 182° South  Level Estimated
Fri 11:56:00 AM 61.7042 25.0686 182° South  Level Estimated
Fri 11:57:00 AM 61.5890 25.0595 182° South  Level Estimated
Fri 11:58:00 AM 61.4738 25.0504 182° South  Level Estimated
Fri 11:59:00 AM 61.3585 25.0415 182° South  Level Estimated
Fri 12:00:00 PM 61.2433 25.0326 182° South  Level Estimated
Fri 12:01:00 PM 61.1281 25.0237 182° South  Level Estimated
Fri 12:02:00 PM 61.0129 25.0150 182° South  Level Estimated
Fri 12:03:00 PM 60.8977 25.0063 182° South  Level Estimated
Fri 12:04:00 PM 60.7824 24.9976 182° South  Level Estimated
Fri 12:05:00 PM 60.6672 24.9890 182° South  Level Estimated
Fri 12:06:00 PM 60.5520 24.9805 182° South  Level Estimated
Fri 12:07:00 PM 60.4368 24.9720 182° South  Level Estimated
Fri 12:08:00 PM 60.3215 24.9636 182° South  Level Estimated
Fri 12:09:00 PM 60.3172 24.9633 182° South  Level Estimated
Fri 12:10:00 PM 60.3172 24.9633 37° Northeast  Level Estimated
Fri 12:11:00 PM 60.3172 24.9633 37° Northeast  Level Estimated
Fri 12:12:00 PM 60.3172 24.9633 37° Northeast  Level Estimated
Fri 12:13:00 PM 60.3172 24.9633 37° Northeast  Level Estimated
Fri 12:14:00 PM 60.3172 24.9633 37° Northeast  Level Estimated
Fri 12:15:00 PM 60.3172 24.9633 37° Northeast  Level Estimated
Fri 12:16:00 PM 60.3172 24.9633 37° Northeast  Level Estimated
Fri 12:17:00 PM 60.3172 24.9633 37° Northeast  Level Estimated
Fri 12:18:00 PM 60.3172 24.9633 37° Northeast  Level Estimated
Fri 12:19:00 PM 60.3172 24.9633 37° Northeast  Level Estimated
Fri 12:20:00 PM 60.3172 24.9633 37° Northeast  Level Estimated
Fri 12:21:00 PM 60.3172 24.9633 37° Northeast  Level Estimated
Fri 12:22:00 PM 60.3172 24.9633 37° Northeast  Level Estimated
Fri 12:23:00 PM 60.3172 24.9633 37° Northeast  Level Estimated
Fri 12:24:00 PM 60.3172 24.9633 37° Northeast  Level Estimated

Login

Don't have an account? Register now (free) for customized features, flight alerts, and more!